sensor_id;sensor_type;location;lat;lon;timestamp;pressure;altitude;pressure_sealevel;temperature;humidity
20119;BME280;10220;42.716;23.306;2023-05-08T00:01:55;95426.59;;;15.53;100.00
20119;BME280;10220;42.716;23.306;2023-05-08T00:04:21;95422.31;;;15.47;100.00
20119;BME280;10220;42.716;23.306;2023-05-08T00:06:47;95436.13;;;15.47;100.00
20119;BME280;10220;42.716;23.306;2023-05-08T00:09:12;95427.28;;;15.37;100.00
20119;BME280;10220;42.716;23.306;2023-05-08T00:11:38;95430.16;;;15.18;100.00
20119;BME280;10220;42.716;23.306;2023-05-08T00:14:05;95419.31;;;15.21;100.00
20119;BME280;10220;42.716;23.306;2023-05-08T00:16:31;95421.66;;;15.11;100.00
20119;BME280;10220;42.716;23.306;2023-05-08T00:18:56;95431.63;;;15.14;100.00
20119;BME280;10220;42.716;23.306;2023-05-08T00:21:22;95412.31;;;15.03;100.00
20119;BME280;10220;42.716;23.306;2023-05-08T00:23:47;95425.38;;;15.03;100.00
20119;BME280;10220;42.716;23.306;2023-05-08T00:26:13;95435.59;;;15.16;100.00
20119;BME280;10220;42.716;23.306;2023-05-08T00:28:38;95437.84;;;15.13;100.00
20119;BME280;10220;42.716;23.306;2023-05-08T00:31:06;95427.88;;;15.10;100.00
20119;BME280;10220;42.716;23.306;2023-05-08T00:33:31;95437.31;;;15.11;100.00
20119;BME280;10220;42.716;23.306;2023-05-08T00:36:01;95441.59;;;15.05;100.00
20119;BME280;10220;42.716;23.306;2023-05-08T00:38:32;95443.38;;;15.23;100.00
20119;BME280;10220;42.716;23.306;2023-05-08T00:40:58;95441.25;;;15.31;100.00
20119;BME280;10220;42.716;23.306;2023-05-08T00:43:24;95453.53;;;15.53;100.00
20119;BME280;10220;42.716;23.306;2023-05-08T00:45:55;95435.81;;;15.67;100.00
20119;BME280;10220;42.716;23.306;2023-05-08T00:48:23;95442.38;;;16.03;100.00
20119;BME280;10220;42.716;23.306;2023-05-08T00:50:51;95448.09;;;15.78;100.00
20119;BME280;10220;42.716;23.306;2023-05-08T00:53:21;95448.06;;;15.89;100.00
20119;BME280;10220;42.716;23.306;2023-05-08T00:55:50;95444.31;;;15.96;100.00
20119;BME280;10220;42.716;23.306;2023-05-08T00:58:17;95450.56;;;15.95;100.00
20119;BME280;10220;42.716;23.306;2023-05-08T01:00:46;95446.13;;;16.07;100.00
20119;BME280;10220;42.716;23.306;2023-05-08T01:03:16;95448.72;;;16.07;100.00
20119;BME280;10220;42.716;23.306;2023-05-08T01:08:26;95448.09;;;15.66;100.00
20119;BME280;10220;42.716;23.306;2023-05-08T01:16:46;95444.88;;;15.30;100.00
20119;BME280;10220;42.716;23.306;2023-05-08T01:22:16;95454.88;;;15.15;100.00
20119;BME280;10220;42.716;23.306;2023-05-08T01:30:41;95449.75;;;15.09;100.00
20119;BME280;10220;42.716;23.306;2023-05-08T01:33:16;95454.41;;;14.66;100.00
20119;BME280;10220;42.716;23.306;2023-05-08T01:35:49;95444.25;;;14.58;100.00
20119;BME280;10220;42.716;23.306;2023-05-08T01:38:50;95444.72;;;14.84;100.00
20119;BME280;10220;42.716;23.306;2023-05-08T01:41:24;95443.06;;;15.01;100.00
20119;BME280;10220;42.716;23.306;2023-05-08T01:44:18;95440.38;;;14.78;100.00
20119;BME280;10220;42.716;23.306;2023-05-08T01:46:47;95440.44;;;14.90;100.00
20119;BME280;10220;42.716;23.306;2023-05-08T01:49:22;95451.19;;;14.35;100.00
20119;BME280;10220;42.716;23.306;2023-05-08T01:51:56;95434.91;;;14.21;100.00
20119;BME280;10220;42.716;23.306;2023-05-08T01:54:25;95430.19;;;14.30;100.00
20119;BME280;10220;42.716;23.306;2023-05-08T01:56:54;95426.84;;;14.23;100.00
20119;BME280;10220;42.716;23.306;2023-05-08T01:59:22;95434.03;;;14.45;100.00
20119;BME280;10220;42.716;23.306;2023-05-08T02:01:51;95446.00;;;14.64;100.00
20119;BME280;10220;42.716;23.306;2023-05-08T02:04:18;95440.44;;;14.90;100.00
20119;BME280;10220;42.716;23.306;2023-05-08T02:06:45;95436.91;;;14.96;100.00
20119;BME280;10220;42.716;23.306;2023-05-08T02:09:11;95448.66;;;14.75;100.00
20119;BME280;10220;42.716;23.306;2023-05-08T02:11:38;95442.41;;;14.29;100.00
20119;BME280;10220;42.716;23.306;2023-05-08T02:14:06;95439.56;;;14.49;100.00
20119;BME280;10220;42.716;23.306;2023-05-08T02:16:33;95452.13;;;14.69;100.00
20119;BME280;10220;42.716;23.306;2023-05-08T02:19:00;95442.94;;;14.38;100.00
20119;BME280;10220;42.716;23.306;2023-05-08T02:21:28;95452.69;;;14.89;100.00
20119;BME280;10220;42.716;23.306;2023-05-08T02:23:56;95441.25;;;15.31;100.00
20119;BME280;10220;42.716;23.306;2023-05-08T02:26:23;95439.06;;;15.28;100.00
20119;BME280;10220;42.716;23.306;2023-05-08T02:28:52;95447.97;;;15.09;100.00
20119;BME280;10220;42.716;23.306;2023-05-08T02:31:20;95458.91;;;14.41;100.00
20119;BME280;10220;42.716;23.306;2023-05-08T02:33:47;95441.16;;;14.50;100.00
20119;BME280;10220;42.716;23.306;2023-05-08T02:36:18;95440.91;;;14.69;100.00
20119;BME280;10220;42.716;23.306;2023-05-08T02:38:50;95444.19;;;13.93;100.00
20119;BME280;10220;42.716;23.306;2023-05-08T02:41:17;95444.31;;;13.38;100.00
20119;BME280;10220;42.716;23.306;2023-05-08T02:43:44;95445.06;;;13.87;100.00
20119;BME280;10220;42.716;23.306;2023-05-08T02:46:17;95450.69;;;14.73;100.00
20119;BME280;10220;42.716;23.306;2023-05-08T02:48:55;95445.25;;;14.10;100.00
20119;BME280;10220;42.716;23.306;2023-05-08T02:51:26;95454.38;;;14.19;100.00
20119;BME280;10220;42.716;23.306;2023-05-08T02:54:16;95460.34;;;13.59;100.00
20119;BME280;10220;42.716;23.306;2023-05-08T02:56:59;95457.66;;;13.48;100.00
20119;BME280;10220;42.716;23.306;2023-05-08T02:59:37;95453.91;;;13.44;100.00
20119;BME280;10220;42.716;23.306;2023-05-08T03:02:16;95443.03;;;12.98;100.00
20119;BME280;10220;42.716;23.306;2023-05-08T03:05:02;95456.69;;;14.09;100.00
20119;BME280;10220;42.716;23.306;2023-05-08T03:07:31;95459.34;;;14.56;100.00
20119;BME280;10220;42.716;23.306;2023-05-08T03:10:01;95451.41;;;14.92;100.00
20119;BME280;10220;42.716;23.306;2023-05-08T03:12:32;95453.75;;;15.40;100.00
20119;BME280;10220;42.716;23.306;2023-05-08T03:15:12;95459.78;;;15.52;100.00
20119;BME280;10220;42.716;23.306;2023-05-08T03:17:40;95460.81;;;15.86;100.00
20119;BME280;10220;42.716;23.306;2023-05-08T03:20:08;95462.41;;;14.35;100.00
20119;BME280;10220;42.716;23.306;2023-05-08T03:22:37;95453.75;;;15.11;100.00
20119;BME280;10220;42.716;23.306;2023-05-08T03:25:06;95457.16;;;15.52;100.00
20119;BME280;10220;42.716;23.306;2023-05-08T03:27:34;95432.44;;;15.14;100.00
20119;BME280;10220;42.716;23.306;2023-05-08T03:30:03;95461.56;;;14.70;100.00
20119;BME280;10220;42.716;23.306;2023-05-08T03:32:30;95472.44;;;13.96;100.00
20119;BME280;10220;42.716;23.306;2023-05-08T03:34:58;95463.75;;;14.02;100.00
20119;BME280;10220;42.716;23.306;2023-05-08T03:37:27;95465.56;;;14.55;100.00
20119;BME280;10220;42.716;23.306;2023-05-08T03:39:54;95474.75;;;14.04;100.00
20119;BME280;10220;42.716;23.306;2023-05-08T03:42:23;95451.75;;;14.19;100.00
20119;BME280;10220;42.716;23.306;2023-05-08T03:44:50;95462.34;;;15.00;100.00
20119;BME280;10220;42.716;23.306;2023-05-08T03:47:20;95465.13;;;14.87;100.00
20119;BME280;10220;42.716;23.306;2023-05-08T03:49:47;95460.09;;;15.15;100.00
20119;BME280;10220;42.716;23.306;2023-05-08T03:52:13;95459.75;;;15.00;100.00
20119;BME280;10220;42.716;23.306;2023-05-08T03:54:39;95436.63;;;14.74;100.00
20119;BME280;10220;42.716;23.306;2023-05-08T03:57:05;95455.06;;;15.20;100.00
20119;BME280;10220;42.716;23.306;2023-05-08T04:00:00;95464.63;;;14.68;100.00
20119;BME280;10220;42.716;23.306;2023-05-08T04:02:37;95487.34;;;15.19;100.00
20119;BME280;10220;42.716;23.306;2023-05-08T04:07:56;95477.44;;;14.33;100.00
20119;BME280;10220;42.716;23.306;2023-05-08T04:10:29;95477.78;;;14.01;100.00
20119;BME280;10220;42.716;23.306;2023-05-08T04:13:15;95475.66;;;14.16;100.00
20119;BME280;10220;42.716;23.306;2023-05-08T04:15:47;95470.91;;;14.78;100.00
20119;BME280;10220;42.716;23.306;2023-05-08T04:18:16;95455.31;;;15.30;100.00
20119;BME280;10220;42.716;23.306;2023-05-08T04:20:48;95488.63;;;15.17;100.00
20119;BME280;10220;42.716;23.306;2023-05-08T04:23:20;95500.63;;;15.18;100.00
20119;BME280;10220;42.716;23.306;2023-05-08T04:25:48;95494.41;;;15.19;100.00
20119;BME280;10220;42.716;23.306;2023-05-08T04:28:15;95492.16;;;14.93;100.00
20119;BME280;10220;42.716;23.306;2023-05-08T04:30:41;95487.16;;;14.91;100.00
20119;BME280;10220;42.716;23.306;2023-05-08T04:33:08;95481.38;;;14.24;100.00
20119;BME280;10220;42.716;23.306;2023-05-08T04:35:33;95479.59;;;14.54;100.00
20119;BME280;10220;42.716;23.306;2023-05-08T04:37:59;95490.78;;;14.25;100.00
20119;BME280;10220;42.716;23.306;2023-05-08T04:40:25;95476.41;;;14.70;100.00
20119;BME280;10220;42.716;23.306;2023-05-08T04:42:50;95485.34;;;14.63;100.00
20119;BME280;10220;42.716;23.306;2023-05-08T04:45:16;95488.81;;;14.57;100.00
20119;BME280;10220;42.716;23.306;2023-05-08T04:47:41;95445.50;;;13.84;100.00
20119;BME280;10220;42.716;23.306;2023-05-08T04:50:07;95478.22;;;14.69;100.00
20119;BME280;10220;42.716;23.306;2023-05-08T04:52:33;95480.84;;;14.99;100.00
20119;BME280;10220;42.716;23.306;2023-05-08T04:54:58;95469.59;;;14.98;100.00
20119;BME280;10220;42.716;23.306;2023-05-08T04:57:24;95477.53;;;15.21;100.00
20119;BME280;10220;42.716;23.306;2023-05-08T04:59:50;95480.44;;;16.11;100.00
20119;BME280;10220;42.716;23.306;2023-05-08T05:02:15;95469.16;;;16.56;100.00
20119;BME280;10220;42.716;23.306;2023-05-08T05:04:41;95480.09;;;15.62;100.00
20119;BME280;10220;42.716;23.306;2023-05-08T05:07:06;95467.94;;;15.79;100.00
20119;BME280;10220;42.716;23.306;2023-05-08T05:09:32;95474.19;;;16.12;100.00
20119;BME280;10220;42.716;23.306;2023-05-08T05:12:02;95469.19;;;15.42;100.00
20119;BME280;10220;42.716;23.306;2023-05-08T05:14:28;95466.00;;;15.97;100.00
20119;BME280;10220;42.716;23.306;2023-05-08T05:16:53;95468.13;;;16.57;100.00
20119;BME280;10220;42.716;23.306;2023-05-08T05:19:18;95474.09;;;16.18;100.00
20119;BME280;10220;42.716;23.306;2023-05-08T05:21:44;95470.34;;;15.80;100.00
20119;BME280;10220;42.716;23.306;2023-05-08T05:24:10;95467.84;;;16.19;100.00
20119;BME280;10220;42.716;23.306;2023-05-08T05:26:35;95467.13;;;16.24;100.00
20119;BME280;10220;42.716;23.306;2023-05-08T05:29:01;95473.03;;;16.53;100.00
20119;BME280;10220;42.716;23.306;2023-05-08T05:31:27;95467.91;;;16.58;100.00
20119;BME280;10220;42.716;23.306;2023-05-08T05:33:53;95472.59;;;16.84;100.00
20119;BME280;10220;42.716;23.306;2023-05-08T05:36:21;95478.34;;;16.70;100.00
20119;BME280;10220;42.716;23.306;2023-05-08T05:38:47;95473.84;;;17.09;100.00
20119;BME280;10220;42.716;23.306;2023-05-08T05:41:12;95476.53;;;16.59;100.00
20119;BME280;10220;42.716;23.306;2023-05-08T05:43:38;95483.81;;;17.24;100.00
20119;BME280;10220;42.716;23.306;2023-05-08T05:46:04;95462.72;;;17.03;100.00
20119;BME280;10220;42.716;23.306;2023-05-08T05:48:33;95462.63;;;16.98;100.00
20119;BME280;10220;42.716;23.306;2023-05-08T05:50:59;95465.78;;;16.33;100.00
20119;BME280;10220;42.716;23.306;2023-05-08T05:53:25;95471.91;;;16.38;100.00
20119;BME280;10220;42.716;23.306;2023-05-08T05:55:50;95477.78;;;17.40;100.00
20119;BME280;10220;42.716;23.306;2023-05-08T05:58:17;95464.84;;;16.50;100.00
20119;BME280;10220;42.716;23.306;2023-05-08T06:00:42;95450.47;;;17.36;100.00
20119;BME280;10220;42.716;23.306;2023-05-08T06:03:08;95453.19;;;17.73;95.37
20119;BME280;10220;42.716;23.306;2023-05-08T06:05:35;95458.16;;;16.82;100.00
20119;BME280;10220;42.716;23.306;2023-05-08T06:08:01;95437.00;;;17.27;100.00
20119;BME280;10220;42.716;23.306;2023-05-08T06:10:29;95451.03;;;17.54;98.71
20119;BME280;10220;42.716;23.306;2023-05-08T06:12:55;95445.28;;;16.80;100.00
20119;BME280;10220;42.716;23.306;2023-05-08T06:15:21;95455.44;;;16.93;100.00
20119;BME280;10220;42.716;23.306;2023-05-08T06:17:46;95445.22;;;15.90;100.00
20119;BME280;10220;42.716;23.306;2023-05-08T06:20:12;95448.38;;;16.38;100.00
20119;BME280;10220;42.716;23.306;2023-05-08T06:22:37;95451.44;;;16.74;100.00
20119;BME280;10220;42.716;23.306;2023-05-08T06:25:05;95456.13;;;17.00;100.00
20119;BME280;10220;42.716;23.306;2023-05-08T06:27:34;95439.66;;;16.60;100.00
20119;BME280;10220;42.716;23.306;2023-05-08T06:29:59;95446.59;;;16.66;100.00
20119;BME280;10220;42.716;23.306;2023-05-08T06:32:25;95453.56;;;16.61;100.00
20119;BME280;10220;42.716;23.306;2023-05-08T06:34:50;95449.75;;;16.68;100.00
20119;BME280;10220;42.716;23.306;2023-05-08T06:37:16;95451.25;;;16.25;100.00
20119;BME280;10220;42.716;23.306;2023-05-08T06:39:42;95454.66;;;16.26;100.00
20119;BME280;10220;42.716;23.306;2023-05-08T06:42:07;95452.50;;;16.62;100.00
20119;BME280;10220;42.716;23.306;2023-05-08T06:44:33;95454.66;;;16.93;100.00
20119;BME280;10220;42.716;23.306;2023-05-08T06:46:58;95458.00;;;16.88;100.00
20119;BME280;10220;42.716;23.306;2023-05-08T06:49:24;95445.09;;;17.26;100.00
20119;BME280;10220;42.716;23.306;2023-05-08T06:51:49;95451.69;;;16.73;100.00
20119;BME280;10220;42.716;23.306;2023-05-08T06:54:15;95439.38;;;17.29;100.00
20119;BME280;10220;42.716;23.306;2023-05-08T06:56:41;95443.97;;;17.38;100.00
20119;BME280;10220;42.716;23.306;2023-05-08T06:59:07;95450.56;;;17.41;100.00
20119;BME280;10220;42.716;23.306;2023-05-08T07:01:36;95450.50;;;17.68;100.00
20119;BME280;10220;42.716;23.306;2023-05-08T07:04:05;95445.59;;;17.56;100.00
20119;BME280;10220;42.716;23.306;2023-05-08T07:06:30;95456.69;;;17.63;100.00
20119;BME280;10220;42.716;23.306;2023-05-08T07:08:56;95446.13;;;17.58;100.00
20119;BME280;10220;42.716;23.306;2023-05-08T07:11:22;95457.56;;;17.84;98.55
20119;BME280;10220;42.716;23.306;2023-05-08T07:13:47;95429.34;;;17.75;100.00
20119;BME280;10220;42.716;23.306;2023-05-08T07:16:13;95472.81;;;17.55;100.00
20119;BME280;10220;42.716;23.306;2023-05-08T07:18:42;95463.69;;;16.85;100.00
20119;BME280;10220;42.716;23.306;2023-05-08T07:21:08;95457.72;;;17.45;100.00
20119;BME280;10220;42.716;23.306;2023-05-08T07:23:34;95461.38;;;17.61;100.00
20119;BME280;10220;42.716;23.306;2023-05-08T07:25:59;95460.53;;;18.09;100.00
20119;BME280;10220;42.716;23.306;2023-05-08T07:28:30;95468.78;;;18.34;97.24
20119;BME280;10220;42.716;23.306;2023-05-08T07:30:55;95453.38;;;18.21;98.48
20119;BME280;10220;42.716;23.306;2023-05-08T07:33:21;95454.53;;;17.76;98.75
20119;BME280;10220;42.716;23.306;2023-05-08T07:35:46;95455.91;;;18.54;97.80
20119;BME280;10220;42.716;23.306;2023-05-08T07:38:12;95452.00;;;18.56;97.58
20119;BME280;10220;42.716;23.306;2023-05-08T07:40:37;95462.88;;;17.73;100.00
20119;BME280;10220;42.716;23.306;2023-05-08T07:43:03;95466.88;;;18.13;100.00
20119;BME280;10220;42.716;23.306;2023-05-08T07:45:28;95452.81;;;18.19;100.00
20119;BME280;10220;42.716;23.306;2023-05-08T07:47:57;95467.69;;;18.73;90.30
20119;BME280;10220;42.716;23.306;2023-05-08T07:50:24;95460.97;;;18.60;96.32
20119;BME280;10220;42.716;23.306;2023-05-08T07:52:50;95459.84;;;18.99;93.13
20119;BME280;10220;42.716;23.306;2023-05-08T07:55:17;95446.88;;;19.14;95.73
20119;BME280;10220;42.716;23.306;2023-05-08T07:57:43;95466.94;;;18.77;97.91
20119;BME280;10220;42.716;23.306;2023-05-08T08:00:10;95453.16;;;18.65;97.26
20119;BME280;10220;42.716;23.306;2023-05-08T08:02:36;95454.13;;;18.81;100.00
20119;BME280;10220;42.716;23.306;2023-05-08T08:05:03;95447.19;;;19.17;99.34
20119;BME280;10220;42.716;23.306;2023-05-08T08:07:29;95458.44;;;18.91;92.57
20119;BME280;10220;42.716;23.306;2023-05-08T08:09:57;95464.91;;;18.84;95.20
20119;BME280;10220;42.716;23.306;2023-05-08T08:12:22;95466.56;;;18.90;92.61
20119;BME280;10220;42.716;23.306;2023-05-08T08:14:48;95458.03;;;18.78;93.36
20119;BME280;10220;42.716;23.306;2023-05-08T08:17:13;95462.16;;;18.95;93.16
20119;BME280;10220;42.716;23.306;2023-05-08T08:19:38;95446.28;;;19.07;97.41
20119;BME280;10220;42.716;23.306;2023-05-08T08:22:04;95447.84;;;19.97;93.23
20119;BME280;10220;42.716;23.306;2023-05-08T08:24:30;95450.13;;;19.52;92.04
20119;BME280;10220;42.716;23.306;2023-05-08T08:26:56;95461.06;;;19.39;100.00
20119;BME280;10220;42.716;23.306;2023-05-08T08:29:21;95453.38;;;19.95;94.97
20119;BME280;10220;42.716;23.306;2023-05-08T08:31:47;95456.25;;;20.40;94.21
20119;BME280;10220;42.716;23.306;2023-05-08T08:34:12;95451.63;;;20.10;89.90
20119;BME280;10220;42.716;23.306;2023-05-08T08:36:38;95446.75;;;20.29;93.16
20119;BME280;10220;42.716;23.306;2023-05-08T08:39:04;95453.06;;;20.33;91.15
20119;BME280;10220;42.716;23.306;2023-05-08T08:41:32;95436.13;;;20.65;88.60
20119;BME280;10220;42.716;23.306;2023-05-08T08:43:58;95440.78;;;20.48;89.38
20119;BME280;10220;42.716;23.306;2023-05-08T08:46:25;95428.34;;;21.00;85.09
20119;BME280;10220;42.716;23.306;2023-05-08T08:48:53;95428.16;;;19.99;86.99
20119;BME280;10220;42.716;23.306;2023-05-08T08:51:26;95431.75;;;19.88;93.10
20119;BME280;10220;42.716;23.306;2023-05-08T08:54:11;95421.81;;;20.41;89.39
20119;BME280;10220;42.716;23.306;2023-05-08T08:56:39;95412.78;;;20.88;85.47
20119;BME280;10220;42.716;23.306;2023-05-08T08:59:07;95405.94;;;21.07;83.03
20119;BME280;10220;42.716;23.306;2023-05-08T09:01:34;95397.22;;;20.97;82.41
20119;BME280;10220;42.716;23.306;2023-05-08T09:04:00;95408.63;;;20.46;88.85
20119;BME280;10220;42.716;23.306;2023-05-08T09:06:26;95411.31;;;20.00;97.05
20119;BME280;10220;42.716;23.306;2023-05-08T09:08:56;95403.50;;;20.15;97.52
20119;BME280;10220;42.716;23.306;2023-05-08T09:11:23;95403.59;;;20.30;96.96
20119;BME280;10220;42.716;23.306;2023-05-08T09:13:48;95384.94;;;19.54;99.46
20119;BME280;10220;42.716;23.306;2023-05-08T09:16:14;95377.88;;;19.54;96.11
20119;BME280;10220;42.716;23.306;2023-05-08T09:18:39;95379.25;;;19.67;95.93
20119;BME280;10220;42.716;23.306;2023-05-08T09:21:07;95364.00;;;19.64;97.33
20119;BME280;10220;42.716;23.306;2023-05-08T09:23:37;95383.50;;;20.19;93.59
20119;BME280;10220;42.716;23.306;2023-05-08T09:29:12;95329.78;;;20.10;92.72
20119;BME280;10220;42.716;23.306;2023-05-08T09:31:41;95377.09;;;20.56;92.05
20119;BME280;10220;42.716;23.306;2023-05-08T09:34:07;95361.59;;;20.69;91.06
20119;BME280;10220;42.716;23.306;2023-05-08T09:36:33;95370.06;;;20.71;92.50
20119;BME280;10220;42.716;23.306;2023-05-08T09:39:00;95371.41;;;20.94;90.25
20119;BME280;10220;42.716;23.306;2023-05-08T09:41:26;95399.34;;;20.95;89.08
20119;BME280;10220;42.716;23.306;2023-05-08T09:44:04;95394.06;;;20.85;88.57
20119;BME280;10220;42.716;23.306;2023-05-08T09:46:36;95395.75;;;20.50;90.59
20119;BME280;10220;42.716;23.306;2023-05-08T09:49:02;95391.38;;;20.75;89.52
20119;BME280;10220;42.716;23.306;2023-05-08T09:51:30;95386.41;;;20.78;88.97
20119;BME280;10220;42.716;23.306;2023-05-08T09:53:57;95383.50;;;20.80;88.83
20119;BME280;10220;42.716;23.306;2023-05-08T09:58:58;95374.59;;;21.16;90.81
20119;BME280;10220;42.716;23.306;2023-05-08T10:01:35;95368.56;;;21.35;91.26
20119;BME280;10220;42.716;23.306;2023-05-08T10:04:01;95365.38;;;21.48;86.97
20119;BME280;10220;42.716;23.306;2023-05-08T10:06:27;95373.28;;;21.13;92.96
20119;BME280;10220;42.716;23.306;2023-05-08T10:09:17;95369.06;;;21.17;93.90
20119;BME280;10220;42.716;23.306;2023-05-08T10:11:49;95363.81;;;21.47;92.91
20119;BME280;10220;42.716;23.306;2023-05-08T10:14:17;95361.41;;;20.96;97.90
20119;BME280;10220;42.716;23.306;2023-05-08T10:16:44;95373.81;;;21.20;95.10
20119;BME280;10220;42.716;23.306;2023-05-08T10:19:15;95365.38;;;21.28;93.12
20119;BME280;10220;42.716;23.306;2023-05-08T10:21:48;95359.88;;;21.54;89.78
20119;BME280;10220;42.716;23.306;2023-05-08T10:24:34;95359.31;;;21.47;94.37
20119;BME280;10220;42.716;23.306;2023-05-08T10:29:32;95358.53;;;21.22;97.38
20119;BME280;10220;42.716;23.306;2023-05-08T10:31:58;95354.31;;;21.71;93.84
20119;BME280;10220;42.716;23.306;2023-05-08T10:34:27;95348.47;;;21.79;90.69
20119;BME280;10220;42.716;23.306;2023-05-08T10:36:55;95357.22;;;21.24;95.20
20119;BME280;10220;42.716;23.306;2023-05-08T10:39:21;95352.97;;;21.48;97.96
20119;BME280;10220;42.716;23.306;2023-05-08T10:41:48;95361.94;;;21.47;94.74
20119;BME280;10220;42.716;23.306;2023-05-08T10:44:14;95345.81;;;21.98;89.06
20119;BME280;10220;42.716;23.306;2023-05-08T10:46:48;95348.19;;;21.95;91.38
20119;BME280;10220;42.716;23.306;2023-05-08T10:49:30;95325.50;;;21.84;91.94
20119;BME280;10220;42.716;23.306;2023-05-08T10:52:22;95345.41;;;22.35;87.68
20119;BME280;10220;42.716;23.306;2023-05-08T10:57:23;95331.56;;;21.94;82.14
20119;BME280;10220;42.716;23.306;2023-05-08T10:59:49;95325.50;;;21.84;85.57
20119;BME280;10220;42.716;23.306;2023-05-08T11:02:14;95327.06;;;22.00;81.29
20119;BME280;10220;42.716;23.306;2023-05-08T11:04:40;95332.06;;;22.06;79.30
20119;BME280;10220;42.716;23.306;2023-05-08T11:07:06;95328.91;;;22.62;79.02
20119;BME280;10220;42.716;23.306;2023-05-08T11:14:53;95305.41;;;23.61;67.05
20119;BME280;10220;42.716;23.306;2023-05-08T11:17:23;95302.44;;;24.19;65.01
20119;BME280;10220;42.716;23.306;2023-05-08T11:20:01;95296.47;;;24.08;57.17
20119;BME280;10220;42.716;23.306;2023-05-08T11:22:32;95292.13;;;24.17;59.59
20119;BME280;10220;42.716;23.306;2023-05-08T11:25:00;95288.28;;;25.06;56.01
20119;BME280;10220;42.716;23.306;2023-05-08T11:38:33;95274.34;;;25.14;58.95
20119;BME280;10220;42.716;23.306;2023-05-08T11:41:02;95271.38;;;24.01;58.61
20119;BME280;10220;42.716;23.306;2023-05-08T11:46:06;95251.03;;;23.78;64.00
20119;BME280;10220;42.716;23.306;2023-05-08T11:48:34;95249.50;;;23.72;62.67
20119;BME280;10220;42.716;23.306;2023-05-08T11:51:01;95247.66;;;23.67;66.44
20119;BME280;10220;42.716;23.306;2023-05-08T11:53:27;95247.41;;;23.41;65.86
20119;BME280;10220;42.716;23.306;2023-05-08T11:55:54;95247.84;;;23.24;62.82
20119;BME280;10220;42.716;23.306;2023-05-08T11:58:20;95241.13;;;23.60;65.64
20119;BME280;10220;42.716;23.306;2023-05-08T12:00:46;95229.75;;;23.36;65.76
20119;BME280;10220;42.716;23.306;2023-05-08T12:03:16;95230.97;;;23.72;65.06
20119;BME280;10220;42.716;23.306;2023-05-08T12:05:42;95241.31;;;23.92;68.20
20119;BME280;10220;42.716;23.306;2023-05-08T12:08:09;95233.56;;;23.77;59.99
20119;BME280;10220;42.716;23.306;2023-05-08T12:10:54;95225.31;;;24.02;62.28
20119;BME280;10220;42.716;23.306;2023-05-08T12:13:24;95221.75;;;23.88;64.73
20119;BME280;10220;42.716;23.306;2023-05-08T12:15:58;95205.72;;;23.79;61.41
20119;BME280;10220;42.716;23.306;2023-05-08T12:18:25;95229.16;;;23.91;61.28
20119;BME280;10220;42.716;23.306;2023-05-08T12:20:58;95222.56;;;23.88;64.42
20119;BME280;10220;42.716;23.306;2023-05-08T12:23:25;95210.78;;;24.18;60.80
20119;BME280;10220;42.716;23.306;2023-05-08T12:25:51;95205.94;;;24.24;59.51
20119;BME280;10220;42.716;23.306;2023-05-08T12:28:20;95212.72;;;24.30;60.93
20119;BME280;10220;42.716;23.306;2023-05-08T12:30:46;95208.78;;;24.28;59.29
20119;BME280;10220;42.716;23.306;2023-05-08T12:33:11;95216.31;;;23.79;61.90
20119;BME280;10220;42.716;23.306;2023-05-08T12:35:40;95209.88;;;23.39;62.86
20119;BME280;10220;42.716;23.306;2023-05-08T12:38:06;95210.00;;;22.96;66.44
20119;BME280;10220;42.716;23.306;2023-05-08T12:40:35;95220.19;;;23.12;65.43
20119;BME280;10220;42.716;23.306;2023-05-08T12:43:04;95206.41;;;23.15;67.72
20119;BME280;10220;42.716;23.306;2023-05-08T12:45:32;95207.38;;;23.24;69.14
20119;BME280;10220;42.716;23.306;2023-05-08T12:48:01;95207.81;;;23.07;67.87
20119;BME280;10220;42.716;23.306;2023-05-08T12:50:26;95193.50;;;23.37;63.20
20119;BME280;10220;42.716;23.306;2023-05-08T12:53:00;95200.66;;;23.36;64.00
20119;BME280;10220;42.716;23.306;2023-05-08T12:55:28;95190.22;;;23.21;61.38
20119;BME280;10220;42.716;23.306;2023-05-08T13:00:51;95208.59;;;23.60;58.37
20119;BME280;10220;42.716;23.306;2023-05-08T13:03:25;95219.22;;;23.03;69.19
20119;BME280;10220;42.716;23.306;2023-05-08T13:05:52;95223.53;;;22.56;81.01
20119;BME280;10220;42.716;23.306;2023-05-08T13:08:18;95219.50;;;22.20;86.38
20119;BME280;10220;42.716;23.306;2023-05-08T13:10:52;95199.38;;;22.34;87.38
20119;BME280;10220;42.716;23.306;2023-05-08T13:13:22;95205.38;;;22.44;88.04
20119;BME280;10220;42.716;23.306;2023-05-08T13:15:49;95216.13;;;22.10;87.68
20119;BME280;10220;42.716;23.306;2023-05-08T13:18:16;95210.56;;;21.48;92.01
20119;BME280;10220;42.716;23.306;2023-05-08T13:20:42;95233.59;;;21.18;96.86
20119;BME280;10220;42.716;23.306;2023-05-08T13:23:08;95222.72;;;21.39;94.10
20119;BME280;10220;42.716;23.306;2023-05-08T13:25:37;95225.91;;;21.41;91.98
20119;BME280;10220;42.716;23.306;2023-05-08T13:28:04;95217.53;;;20.85;95.73
20119;BME280;10220;42.716;23.306;2023-05-08T13:30:30;95232.06;;;20.72;97.16
20119;BME280;10220;42.716;23.306;2023-05-08T13:32:56;95241.00;;;20.91;99.92
20119;BME280;10220;42.716;23.306;2023-05-08T13:35:21;95237.28;;;20.63;98.55
20119;BME280;10220;42.716;23.306;2023-05-08T13:37:47;95252.31;;;20.97;100.00
20119;BME280;10220;42.716;23.306;2023-05-08T13:40:14;95252.06;;;20.78;100.00
20119;BME280;10220;42.716;23.306;2023-05-08T13:42:39;95255.75;;;20.82;100.00
20119;BME280;10220;42.716;23.306;2023-05-08T13:45:06;95233.63;;;20.88;100.00